sensor_id;sensor_type;location;lat;lon;timestamp;P1;durP1;ratioP1;P2;durP2;ratioP2
25962;SDS011;13760;52.588;13.406;2023-05-29T00:02:09;10.57;;;4.28;;
25962;SDS011;13760;52.588;13.406;2023-05-29T00:04:34;11.20;;;4.78;;
25962;SDS011;13760;52.588;13.406;2023-05-29T00:07:00;14.02;;;5.20;;
25962;SDS011;13760;52.588;13.406;2023-05-29T00:09:26;14.25;;;4.93;;
25962;SDS011;13760;52.588;13.406;2023-05-29T00:11:53;12.10;;;5.20;;
25962;SDS011;13760;52.588;13.406;2023-05-29T00:14:19;10.13;;;4.60;;
25962;SDS011;13760;52.588;13.406;2023-05-29T00:16:45;11.75;;;4.25;;
25962;SDS011;13760;52.588;13.406;2023-05-29T00:19:14;13.75;;;5.05;;
25962;SDS011;13760;52.588;13.406;2023-05-29T00:21:44;11.77;;;5.47;;
25962;SDS011;13760;52.588;13.406;2023-05-29T00:24:12;12.60;;;4.80;;
25962;SDS011;13760;52.588;13.406;2023-05-29T00:26:39;12.23;;;5.20;;
25962;SDS011;13760;52.588;13.406;2023-05-29T00:29:04;12.40;;;5.10;;
25962;SDS011;13760;52.588;13.406;2023-05-29T00:31:30;13.68;;;5.45;;
25962;SDS011;13760;52.588;13.406;2023-05-29T00:33:55;9.57;;;4.60;;
25962;SDS011;13760;52.588;13.406;2023-05-29T00:36:21;14.68;;;5.10;;
25962;SDS011;13760;52.588;13.406;2023-05-29T00:38:47;12.77;;;5.70;;
25962;SDS011;13760;52.588;13.406;2023-05-29T00:41:16;9.02;;;4.80;;
25962;SDS011;13760;52.588;13.406;2023-05-29T00:43:42;13.77;;;5.38;;
25962;SDS011;13760;52.588;13.406;2023-05-29T00:46:09;14.10;;;5.60;;
25962;SDS011;13760;52.588;13.406;2023-05-29T00:48:36;12.88;;;5.07;;
25962;SDS011;13760;52.588;13.406;2023-05-29T00:51:02;14.35;;;5.50;;
25962;SDS011;13760;52.588;13.406;2023-05-29T00:53:27;10.43;;;5.13;;
25962;SDS011;13760;52.588;13.406;2023-05-29T00:55:53;12.27;;;5.22;;
25962;SDS011;13760;52.588;13.406;2023-05-29T00:58:19;15.50;;;5.60;;
25962;SDS011;13760;52.588;13.406;2023-05-29T01:00:46;11.52;;;5.88;;
25962;SDS011;13760;52.588;13.406;2023-05-29T01:03:12;16.17;;;6.20;;
25962;SDS011;13760;52.588;13.406;2023-05-29T01:05:39;12.02;;;5.60;;
25962;SDS011;13760;52.588;13.406;2023-05-29T01:08:06;14.50;;;5.70;;
25962;SDS011;13760;52.588;13.406;2023-05-29T01:10:32;14.48;;;5.60;;
25962;SDS011;13760;52.588;13.406;2023-05-29T01:15:40;11.75;;;5.45;;
25962;SDS011;13760;52.588;13.406;2023-05-29T01:21:06;10.13;;;5.05;;
25962;SDS011;13760;52.588;13.406;2023-05-29T01:27:05;12.57;;;5.05;;
25962;SDS011;13760;52.588;13.406;2023-05-29T01:29:35;16.25;;;5.68;;
25962;SDS011;13760;52.588;13.406;2023-05-29T01:32:04;12.57;;;5.45;;
25962;SDS011;13760;52.588;13.406;2023-05-29T01:34:30;12.20;;;5.10;;
25962;SDS011;13760;52.588;13.406;2023-05-29T01:36:56;13.95;;;5.15;;
25962;SDS011;13760;52.588;13.406;2023-05-29T01:39:22;12.10;;;5.05;;
25962;SDS011;13760;52.588;13.406;2023-05-29T01:41:48;10.63;;;4.40;;
25962;SDS011;13760;52.588;13.406;2023-05-29T01:44:15;12.82;;;5.32;;
25962;SDS011;13760;52.588;13.406;2023-05-29T01:46:42;11.50;;;4.72;;
25962;SDS011;13760;52.588;13.406;2023-05-29T01:49:08;9.05;;;4.60;;
25962;SDS011;13760;52.588;13.406;2023-05-29T01:51:36;10.63;;;5.18;;
25962;SDS011;13760;52.588;13.406;2023-05-29T01:54:02;12.90;;;5.40;;
25962;SDS011;13760;52.588;13.406;2023-05-29T01:56:29;10.70;;;4.63;;
25962;SDS011;13760;52.588;13.406;2023-05-29T01:58:56;10.60;;;5.15;;
25962;SDS011;13760;52.588;13.406;2023-05-29T02:01:22;14.73;;;5.60;;
25962;SDS011;13760;52.588;13.406;2023-05-29T02:03:49;10.60;;;4.97;;
25962;SDS011;13760;52.588;13.406;2023-05-29T02:06:16;13.80;;;5.32;;
25962;SDS011;13760;52.588;13.406;2023-05-29T02:08:42;10.18;;;5.15;;
25962;SDS011;13760;52.588;13.406;2023-05-29T02:11:07;14.60;;;5.63;;
25962;SDS011;13760;52.588;13.406;2023-05-29T02:13:33;13.10;;;5.45;;
25962;SDS011;13760;52.588;13.406;2023-05-29T02:15:59;11.43;;;4.88;;
25962;SDS011;13760;52.588;13.406;2023-05-29T02:18:25;12.80;;;5.78;;
25962;SDS011;13760;52.588;13.406;2023-05-29T02:20:50;13.60;;;5.45;;
25962;SDS011;13760;52.588;13.406;2023-05-29T02:23:16;16.35;;;5.93;;
25962;SDS011;13760;52.588;13.406;2023-05-29T02:25:42;13.60;;;5.35;;
25962;SDS011;13760;52.588;13.406;2023-05-29T02:28:07;10.65;;;5.40;;
25962;SDS011;13760;52.588;13.406;2023-05-29T02:30:34;14.27;;;6.10;;
25962;SDS011;13760;52.588;13.406;2023-05-29T02:32:59;11.43;;;5.88;;
25962;SDS011;13760;52.588;13.406;2023-05-29T02:35:25;14.30;;;6.45;;
25962;SDS011;13760;52.588;13.406;2023-05-29T02:37:51;10.65;;;5.20;;
25962;SDS011;13760;52.588;13.406;2023-05-29T02:40:17;12.52;;;5.47;;
25962;SDS011;13760;52.588;13.406;2023-05-29T02:42:44;14.52;;;5.57;;
25962;SDS011;13760;52.588;13.406;2023-05-29T02:45:10;13.02;;;5.93;;
25962;SDS011;13760;52.588;13.406;2023-05-29T02:47:36;10.15;;;5.28;;
25962;SDS011;13760;52.588;13.406;2023-05-29T02:50:02;13.55;;;4.70;;
25962;SDS011;13760;52.588;13.406;2023-05-29T02:52:28;14.15;;;5.97;;
25962;SDS011;13760;52.588;13.406;2023-05-29T02:54:55;14.43;;;5.38;;
25962;SDS011;13760;52.588;13.406;2023-05-29T02:57:21;11.50;;;5.18;;
25962;SDS011;13760;52.588;13.406;2023-05-29T02:59:47;13.63;;;5.32;;
25962;SDS011;13760;52.588;13.406;2023-05-29T03:02:12;11.88;;;5.30;;
25962;SDS011;13760;52.588;13.406;2023-05-29T03:04:38;14.45;;;5.88;;
25962;SDS011;13760;52.588;13.406;2023-05-29T03:07:04;12.88;;;5.70;;
25962;SDS011;13760;52.588;13.406;2023-05-29T03:09:31;11.18;;;5.32;;
25962;SDS011;13760;52.588;13.406;2023-05-29T03:11:57;16.23;;;5.82;;
25962;SDS011;13760;52.588;13.406;2023-05-29T03:14:22;10.40;;;5.57;;
25962;SDS011;13760;52.588;13.406;2023-05-29T03:16:48;13.40;;;5.30;;
25962;SDS011;13760;52.588;13.406;2023-05-29T03:19:17;13.70;;;5.88;;
25962;SDS011;13760;52.588;13.406;2023-05-29T03:21:43;10.68;;;5.38;;
25962;SDS011;13760;52.588;13.406;2023-05-29T03:24:09;13.45;;;5.63;;
25962;SDS011;13760;52.588;13.406;2023-05-29T03:26:34;12.95;;;5.53;;
25962;SDS011;13760;52.588;13.406;2023-05-29T03:29:01;12.18;;;5.00;;
25962;SDS011;13760;52.588;13.406;2023-05-29T03:31:27;13.10;;;6.25;;
25962;SDS011;13760;52.588;13.406;2023-05-29T03:33:53;11.40;;;5.47;;
25962;SDS011;13760;52.588;13.406;2023-05-29T03:36:18;10.50;;;5.65;;
25962;SDS011;13760;52.588;13.406;2023-05-29T03:38:44;11.63;;;5.28;;
25962;SDS011;13760;52.588;13.406;2023-05-29T03:41:09;12.80;;;5.65;;
25962;SDS011;13760;52.588;13.406;2023-05-29T03:43:35;9.75;;;5.57;;
25962;SDS011;13760;52.588;13.406;2023-05-29T03:46:01;14.82;;;6.10;;
25962;SDS011;13760;52.588;13.406;2023-05-29T03:48:26;11.57;;;5.35;;
25962;SDS011;13760;52.588;13.406;2023-05-29T03:50:52;10.63;;;4.88;;
25962;SDS011;13760;52.588;13.406;2023-05-29T03:53:17;14.80;;;5.43;;
25962;SDS011;13760;52.588;13.406;2023-05-29T03:55:43;14.85;;;6.03;;
25962;SDS011;13760;52.588;13.406;2023-05-29T03:58:09;10.65;;;5.30;;
25962;SDS011;13760;52.588;13.406;2023-05-29T04:00:37;12.93;;;5.22;;
25962;SDS011;13760;52.588;13.406;2023-05-29T04:03:03;14.48;;;5.80;;
25962;SDS011;13760;52.588;13.406;2023-05-29T04:05:28;12.70;;;5.35;;
25962;SDS011;13760;52.588;13.406;2023-05-29T04:07:54;10.82;;;5.43;;
25962;SDS011;13760;52.588;13.406;2023-05-29T04:10:20;10.27;;;5.38;;
25962;SDS011;13760;52.588;13.406;2023-05-29T04:12:46;12.88;;;5.60;;
25962;SDS011;13760;52.588;13.406;2023-05-29T04:15:11;9.55;;;5.68;;
25962;SDS011;13760;52.588;13.406;2023-05-29T04:17:37;12.25;;;5.50;;
25962;SDS011;13760;52.588;13.406;2023-05-29T04:20:02;11.68;;;5.50;;
25962;SDS011;13760;52.588;13.406;2023-05-29T04:22:33;15.77;;;6.05;;
25962;SDS011;13760;52.588;13.406;2023-05-29T04:25:00;12.57;;;5.57;;
25962;SDS011;13760;52.588;13.406;2023-05-29T04:27:25;13.43;;;5.95;;
25962;SDS011;13760;52.588;13.406;2023-05-29T04:29:51;10.48;;;5.38;;
25962;SDS011;13760;52.588;13.406;2023-05-29T04:32:16;8.90;;;5.30;;
25962;SDS011;13760;52.588;13.406;2023-05-29T04:34:42;12.82;;;5.90;;
25962;SDS011;13760;52.588;13.406;2023-05-29T04:37:09;15.45;;;6.03;;
25962;SDS011;13760;52.588;13.406;2023-05-29T04:39:34;12.05;;;5.57;;
25962;SDS011;13760;52.588;13.406;2023-05-29T04:42:00;12.07;;;5.78;;
25962;SDS011;13760;52.588;13.406;2023-05-29T04:44:25;11.80;;;5.68;;
25962;SDS011;13760;52.588;13.406;2023-05-29T04:46:52;11.40;;;5.13;;
25962;SDS011;13760;52.588;13.406;2023-05-29T04:49:18;11.98;;;5.72;;
25962;SDS011;13760;52.588;13.406;2023-05-29T04:51:45;9.57;;;4.95;;
25962;SDS011;13760;52.588;13.406;2023-05-29T04:54:11;8.75;;;5.03;;
25962;SDS011;13760;52.588;13.406;2023-05-29T04:56:37;10.68;;;5.25;;
25962;SDS011;13760;52.588;13.406;2023-05-29T04:59:05;11.02;;;5.78;;
25962;SDS011;13760;52.588;13.406;2023-05-29T05:01:31;10.57;;;5.63;;
25962;SDS011;13760;52.588;13.406;2023-05-29T05:03:58;10.80;;;5.00;;
25962;SDS011;13760;52.588;13.406;2023-05-29T05:06:24;10.90;;;5.18;;
25962;SDS011;13760;52.588;13.406;2023-05-29T05:08:50;9.40;;;5.15;;
25962;SDS011;13760;52.588;13.406;2023-05-29T05:11:17;10.82;;;4.97;;
25962;SDS011;13760;52.588;13.406;2023-05-29T05:13:43;8.57;;;5.22;;
25962;SDS011;13760;52.588;13.406;2023-05-29T05:16:09;12.35;;;5.00;;
25962;SDS011;13760;52.588;13.406;2023-05-29T05:18:35;9.57;;;4.97;;
25962;SDS011;13760;52.588;13.406;2023-05-29T05:21:01;9.50;;;5.00;;
25962;SDS011;13760;52.588;13.406;2023-05-29T05:23:28;9.73;;;4.70;;
25962;SDS011;13760;52.588;13.406;2023-05-29T05:25:54;9.68;;;4.50;;
25962;SDS011;13760;52.588;13.406;2023-05-29T05:28:20;10.50;;;5.18;;
25962;SDS011;13760;52.588;13.406;2023-05-29T05:30:46;8.18;;;4.78;;
25962;SDS011;13760;52.588;13.406;2023-05-29T05:33:11;9.75;;;4.50;;
25962;SDS011;13760;52.588;13.406;2023-05-29T05:35:37;8.20;;;4.10;;
25962;SDS011;13760;52.588;13.406;2023-05-29T05:38:03;8.95;;;4.85;;
25962;SDS011;13760;52.588;13.406;2023-05-29T05:40:29;9.48;;;4.40;;
25962;SDS011;13760;52.588;13.406;2023-05-29T05:42:54;7.28;;;4.35;;
25962;SDS011;13760;52.588;13.406;2023-05-29T05:45:20;9.15;;;4.32;;
25962;SDS011;13760;52.588;13.406;2023-05-29T05:47:46;7.80;;;4.20;;
25962;SDS011;13760;52.588;13.406;2023-05-29T05:50:12;8.65;;;3.95;;
25962;SDS011;13760;52.588;13.406;2023-05-29T05:52:38;12.05;;;4.22;;
25962;SDS011;13760;52.588;13.406;2023-05-29T05:55:03;6.10;;;3.70;;
25962;SDS011;13760;52.588;13.406;2023-05-29T05:57:29;6.72;;;3.40;;
25962;SDS011;13760;52.588;13.406;2023-05-29T05:59:57;8.18;;;3.75;;
25962;SDS011;13760;52.588;13.406;2023-05-29T06:02:23;8.27;;;3.60;;
25962;SDS011;13760;52.588;13.406;2023-05-29T06:04:49;6.25;;;3.45;;
25962;SDS011;13760;52.588;13.406;2023-05-29T06:07:15;5.43;;;3.10;;
25962;SDS011;13760;52.588;13.406;2023-05-29T06:09:40;5.40;;;3.13;;
25962;SDS011;13760;52.588;13.406;2023-05-29T06:12:07;8.55;;;3.35;;
25962;SDS011;13760;52.588;13.406;2023-05-29T06:14:33;8.63;;;3.33;;
25962;SDS011;13760;52.588;13.406;2023-05-29T06:17:00;8.05;;;2.95;;
25962;SDS011;13760;52.588;13.406;2023-05-29T06:19:26;4.95;;;3.15;;
25962;SDS011;13760;52.588;13.406;2023-05-29T06:21:51;6.13;;;3.70;;
25962;SDS011;13760;52.588;13.406;2023-05-29T06:24:17;8.02;;;3.60;;
25962;SDS011;13760;52.588;13.406;2023-05-29T06:26:43;11.43;;;3.83;;
25962;SDS011;13760;52.588;13.406;2023-05-29T06:29:08;5.57;;;3.15;;
25962;SDS011;13760;52.588;13.406;2023-05-29T06:31:34;8.50;;;3.47;;
25962;SDS011;13760;52.588;13.406;2023-05-29T06:33:59;5.75;;;3.13;;
25962;SDS011;13760;52.588;13.406;2023-05-29T06:36:25;8.60;;;3.10;;
25962;SDS011;13760;52.588;13.406;2023-05-29T06:38:51;8.15;;;2.80;;
25962;SDS011;13760;52.588;13.406;2023-05-29T06:41:17;5.45;;;3.08;;
25962;SDS011;13760;52.588;13.406;2023-05-29T06:43:43;5.65;;;2.97;;
25962;SDS011;13760;52.588;13.406;2023-05-29T06:46:09;6.68;;;2.63;;
25962;SDS011;13760;52.588;13.406;2023-05-29T06:48:35;5.70;;;2.58;;
25962;SDS011;13760;52.588;13.406;2023-05-29T06:51:01;5.15;;;3.10;;
25962;SDS011;13760;52.588;13.406;2023-05-29T06:53:34;4.90;;;2.97;;
25962;SDS011;13760;52.588;13.406;2023-05-29T06:56:03;5.95;;;2.60;;
25962;SDS011;13760;52.588;13.406;2023-05-29T06:58:30;5.60;;;2.70;;
25962;SDS011;13760;52.588;13.406;2023-05-29T07:00:56;7.55;;;2.97;;
25962;SDS011;13760;52.588;13.406;2023-05-29T07:03:23;3.85;;;2.40;;
25962;SDS011;13760;52.588;13.406;2023-05-29T07:05:52;4.93;;;2.20;;
25962;SDS011;13760;52.588;13.406;2023-05-29T07:08:18;8.77;;;2.90;;
25962;SDS011;13760;52.588;13.406;2023-05-29T07:10:44;6.68;;;2.75;;
25962;SDS011;13760;52.588;13.406;2023-05-29T07:13:14;5.22;;;2.75;;
25962;SDS011;13760;52.588;13.406;2023-05-29T07:15:47;4.50;;;2.90;;
25962;SDS011;13760;52.588;13.406;2023-05-29T07:18:18;5.05;;;2.85;;
25962;SDS011;13760;52.588;13.406;2023-05-29T07:20:48;5.53;;;3.10;;
25962;SDS011;13760;52.588;13.406;2023-05-29T07:23:53;6.05;;;3.10;;
25962;SDS011;13760;52.588;13.406;2023-05-29T07:26:19;5.43;;;2.78;;
25962;SDS011;13760;52.588;13.406;2023-05-29T07:28:46;4.95;;;2.58;;
25962;SDS011;13760;52.588;13.406;2023-05-29T07:31:12;5.78;;;2.80;;
25962;SDS011;13760;52.588;13.406;2023-05-29T07:33:39;4.70;;;2.55;;
25962;SDS011;13760;52.588;13.406;2023-05-29T07:36:06;5.90;;;2.60;;
25962;SDS011;13760;52.588;13.406;2023-05-29T07:38:32;3.70;;;2.80;;
25962;SDS011;13760;52.588;13.406;2023-05-29T07:41:01;5.50;;;2.45;;
25962;SDS011;13760;52.588;13.406;2023-05-29T07:43:27;4.50;;;2.45;;
25962;SDS011;13760;52.588;13.406;2023-05-29T07:46:14;5.38;;;2.40;;
25962;SDS011;13760;52.588;13.406;2023-05-29T07:48:50;4.20;;;2.40;;
25962;SDS011;13760;52.588;13.406;2023-05-29T07:51:19;4.13;;;2.17;;
25962;SDS011;13760;52.588;13.406;2023-05-29T07:53:48;2.60;;;1.90;;
25962;SDS011;13760;52.588;13.406;2023-05-29T07:56:17;3.87;;;2.43;;
25962;SDS011;13760;52.588;13.406;2023-05-29T07:58:49;3.53;;;2.00;;
25962;SDS011;13760;52.588;13.406;2023-05-29T08:01:17;5.13;;;2.08;;
25962;SDS011;13760;52.588;13.406;2023-05-29T08:03:50;4.20;;;2.28;;
25962;SDS011;13760;52.588;13.406;2023-05-29T08:06:25;4.63;;;2.35;;
25962;SDS011;13760;52.588;13.406;2023-05-29T08:09:26;3.20;;;2.20;;
25962;SDS011;13760;52.588;13.406;2023-05-29T08:11:57;3.85;;;2.17;;
25962;SDS011;13760;52.588;13.406;2023-05-29T08:14:25;3.72;;;2.22;;
25962;SDS011;13760;52.588;13.406;2023-05-29T08:16:50;3.53;;;2.00;;
25962;SDS011;13760;52.588;13.406;2023-05-29T08:19:16;2.92;;;2.08;;
25962;SDS011;13760;52.588;13.406;2023-05-29T08:21:42;4.90;;;2.08;;
25962;SDS011;13760;52.588;13.406;2023-05-29T08:24:07;3.50;;;2.20;;
25962;SDS011;13760;52.588;13.406;2023-05-29T08:26:34;4.40;;;2.60;;
25962;SDS011;13760;52.588;13.406;2023-05-29T08:29:00;4.82;;;2.45;;
25962;SDS011;13760;52.588;13.406;2023-05-29T08:31:25;5.53;;;2.42;;
25962;SDS011;13760;52.588;13.406;2023-05-29T08:33:52;3.22;;;2.08;;
25962;SDS011;13760;52.588;13.406;2023-05-29T08:36:18;7.18;;;2.50;;
25962;SDS011;13760;52.588;13.406;2023-05-29T08:38:50;3.13;;;1.95;;
25962;SDS011;13760;52.588;13.406;2023-05-29T08:41:25;5.38;;;2.50;;
25962;SDS011;13760;52.588;13.406;2023-05-29T08:44:17;6.30;;;2.63;;
25962;SDS011;13760;52.588;13.406;2023-05-29T08:46:54;4.35;;;2.53;;
25962;SDS011;13760;52.588;13.406;2023-05-29T08:49:21;6.35;;;2.45;;
25962;SDS011;13760;52.588;13.406;2023-05-29T08:51:52;3.80;;;2.70;;
25962;SDS011;13760;52.588;13.406;2023-05-29T08:54:25;7.40;;;2.40;;
25962;SDS011;13760;52.588;13.406;2023-05-29T08:56:51;4.90;;;2.30;;
25962;SDS011;13760;52.588;13.406;2023-05-29T08:59:16;6.00;;;2.55;;
25962;SDS011;13760;52.588;13.406;2023-05-29T09:01:42;4.57;;;2.50;;
25962;SDS011;13760;52.588;13.406;2023-05-29T09:04:08;3.55;;;2.50;;
25962;SDS011;13760;52.588;13.406;2023-05-29T09:06:34;6.78;;;2.47;;
25962;SDS011;13760;52.588;13.406;2023-05-29T09:09:00;4.22;;;2.45;;
25962;SDS011;13760;52.588;13.406;2023-05-29T09:11:25;8.13;;;2.90;;
25962;SDS011;13760;52.588;13.406;2023-05-29T09:13:52;7.05;;;3.00;;
25962;SDS011;13760;52.588;13.406;2023-05-29T09:16:18;4.40;;;2.50;;
25962;SDS011;13760;52.588;13.406;2023-05-29T09:18:43;4.10;;;2.35;;
25962;SDS011;13760;52.588;13.406;2023-05-29T09:21:24;5.55;;;2.60;;
25962;SDS011;13760;52.588;13.406;2023-05-29T09:23:52;4.70;;;2.80;;
25962;SDS011;13760;52.588;13.406;2023-05-29T09:26:20;5.32;;;2.78;;
25962;SDS011;13760;52.588;13.406;2023-05-29T09:28:49;4.27;;;2.40;;
25962;SDS011;13760;52.588;13.406;2023-05-29T09:31:15;5.95;;;2.67;;
25962;SDS011;13760;52.588;13.406;2023-05-29T09:33:48;4.45;;;2.53;;
25962;SDS011;13760;52.588;13.406;2023-05-29T09:36:21;4.95;;;2.95;;
25962;SDS011;13760;52.588;13.406;2023-05-29T09:38:47;8.73;;;3.08;;
25962;SDS011;13760;52.588;13.406;2023-05-29T09:41:13;5.50;;;2.80;;
25962;SDS011;13760;52.588;13.406;2023-05-29T09:43:47;6.13;;;2.92;;
25962;SDS011;13760;52.588;13.406;2023-05-29T09:46:16;6.10;;;2.60;;
25962;SDS011;13760;52.588;13.406;2023-05-29T09:48:59;3.83;;;2.53;;
25962;SDS011;13760;52.588;13.406;2023-05-29T09:51:40;5.20;;;2.55;;
25962;SDS011;13760;52.588;13.406;2023-05-29T09:54:14;9.27;;;2.90;;
25962;SDS011;13760;52.588;13.406;2023-05-29T09:56:44;6.50;;;2.60;;
25962;SDS011;13760;52.588;13.406;2023-05-29T09:59:11;5.35;;;2.90;;
25962;SDS011;13760;52.588;13.406;2023-05-29T10:02:02;6.22;;;2.65;;
25962;SDS011;13760;52.588;13.406;2023-05-29T10:04:37;4.97;;;2.72;;
25962;SDS011;13760;52.588;13.406;2023-05-29T10:07:35;5.05;;;2.35;;
25962;SDS011;13760;52.588;13.406;2023-05-29T10:10:05;5.30;;;2.72;;
25962;SDS011;13760;52.588;13.406;2023-05-29T10:12:37;5.28;;;2.55;;
25962;SDS011;13760;52.588;13.406;2023-05-29T10:15:14;6.15;;;2.85;;
25962;SDS011;13760;52.588;13.406;2023-05-29T10:20:16;4.63;;;2.60;;
25962;SDS011;13760;52.588;13.406;2023-05-29T10:22:49;4.47;;;2.47;;
25962;SDS011;13760;52.588;13.406;2023-05-29T10:25:17;4.43;;;2.45;;
25962;SDS011;13760;52.588;13.406;2023-05-29T10:27:45;6.05;;;2.90;;
25962;SDS011;13760;52.588;13.406;2023-05-29T10:30:22;8.07;;;2.83;;
25962;SDS011;13760;52.588;13.406;2023-05-29T10:35:45;4.45;;;2.35;;
25962;SDS011;13760;52.588;13.406;2023-05-29T10:38:16;4.10;;;2.50;;
25962;SDS011;13760;52.588;13.406;2023-05-29T10:40:43;4.93;;;2.53;;
25962;SDS011;13760;52.588;13.406;2023-05-29T10:45:56;4.60;;;2.50;;
25962;SDS011;13760;52.588;13.406;2023-05-29T10:50:54;5.53;;;2.67;;
25962;SDS011;13760;52.588;13.406;2023-05-29T10:53:24;5.82;;;2.70;;
25962;SDS011;13760;52.588;13.406;2023-05-29T10:55:52;4.25;;;2.55;;
25962;SDS011;13760;52.588;13.406;2023-05-29T10:58:18;4.38;;;2.70;;
25962;SDS011;13760;52.588;13.406;2023-05-29T11:00:45;4.25;;;2.65;;
25962;SDS011;13760;52.588;13.406;2023-05-29T11:03:19;4.38;;;2.63;;
25962;SDS011;13760;52.588;13.406;2023-05-29T11:05:56;6.13;;;2.67;;
25962;SDS011;13760;52.588;13.406;2023-05-29T11:08:42;6.45;;;2.72;;
25962;SDS011;13760;52.588;13.406;2023-05-29T11:11:30;5.20;;;2.40;;
25962;SDS011;13760;52.588;13.406;2023-05-29T11:14:01;4.25;;;2.40;;
25962;SDS011;13760;52.588;13.406;2023-05-29T11:18:57;3.67;;;2.22;;
25962;SDS011;13760;52.588;13.406;2023-05-29T11:24:04;4.85;;;2.78;;
25962;SDS011;13760;52.588;13.406;2023-05-29T11:26:31;6.57;;;2.70;;
25962;SDS011;13760;52.588;13.406;2023-05-29T11:28:58;5.32;;;2.63;;
25962;SDS011;13760;52.588;13.406;2023-05-29T11:31:25;5.07;;;2.67;;
25962;SDS011;13760;52.588;13.406;2023-05-29T11:33:53;4.47;;;2.75;;
25962;SDS011;13760;52.588;13.406;2023-05-29T11:36:23;6.70;;;2.67;;
25962;SDS011;13760;52.588;13.406;2023-05-29T11:38:51;6.47;;;2.60;;
25962;SDS011;13760;52.588;13.406;2023-05-29T11:41:16;6.03;;;2.38;;
25962;SDS011;13760;52.588;13.406;2023-05-29T11:43:42;4.65;;;2.50;;
25962;SDS011;13760;52.588;13.406;2023-05-29T11:46:18;7.85;;;2.80;;
25962;SDS011;13760;52.588;13.406;2023-05-29T11:48:45;3.88;;;2.42;;
25962;SDS011;13760;52.588;13.406;2023-05-29T11:51:13;5.45;;;2.83;;
25962;SDS011;13760;52.588;13.406;2023-05-29T11:53:40;5.07;;;2.97;;
25962;SDS011;13760;52.588;13.406;2023-05-29T11:56:09;4.70;;;2.70;;
25962;SDS011;13760;52.588;13.406;2023-05-29T11:58:36;5.50;;;2.60;;
25962;SDS011;13760;52.588;13.406;2023-05-29T12:01:05;5.43;;;2.42;;
25962;SDS011;13760;52.588;13.406;2023-05-29T12:03:42;5.88;;;2.70;;
25962;SDS011;13760;52.588;13.406;2023-05-29T12:06:11;6.65;;;2.72;;
25962;SDS011;13760;52.588;13.406;2023-05-29T12:08:37;6.18;;;2.75;;
25962;SDS011;13760;52.588;13.406;2023-05-29T12:11:03;6.07;;;2.75;;
25962;SDS011;13760;52.588;13.406;2023-05-29T12:13:29;4.38;;;2.50;;
25962;SDS011;13760;52.588;13.406;2023-05-29T12:15:59;6.28;;;2.58;;
25962;SDS011;13760;52.588;13.406;2023-05-29T12:18:27;6.38;;;2.70;;
25962;SDS011;13760;52.588;13.406;2023-05-29T12:21:01;4.68;;;2.40;;
25962;SDS011;13760;52.588;13.406;2023-05-29T12:23:28;4.05;;;2.38;;
25962;SDS011;13760;52.588;13.406;2023-05-29T12:25:54;5.65;;;2.60;;
25962;SDS011;13760;52.588;13.406;2023-05-29T12:28:20;6.13;;;2.65;;
25962;SDS011;13760;52.588;13.406;2023-05-29T12:30:46;4.00;;;2.80;;
25962;SDS011;13760;52.588;13.406;2023-05-29T12:33:27;4.97;;;2.17;;
25962;SDS011;13760;52.588;13.406;2023-05-29T12:38:29;6.10;;;2.60;;
25962;SDS011;13760;52.588;13.406;2023-05-29T12:40:55;5.65;;;2.70;;
25962;SDS011;13760;52.588;13.406;2023-05-29T12:43:21;5.22;;;2.30;;
25962;SDS011;13760;52.588;13.406;2023-05-29T12:45:53;6.40;;;2.88;;
25962;SDS011;13760;52.588;13.406;2023-05-29T12:48:20;7.30;;;2.97;;
25962;SDS011;13760;52.588;13.406;2023-05-29T12:50:47;5.60;;;2.40;;
25962;SDS011;13760;52.588;13.406;2023-05-29T12:53:14;3.67;;;2.45;;
25962;SDS011;13760;52.588;13.406;2023-05-29T12:55:41;3.97;;;2.40;;
25962;SDS011;13760;52.588;13.406;2023-05-29T12:58:12;6.03;;;2.70;;
25962;SDS011;13760;52.588;13.406;2023-05-29T13:00:39;4.03;;;2.40;;
25962;SDS011;13760;52.588;13.406;2023-05-29T13:03:06;5.13;;;2.38;;
25962;SDS011;13760;52.588;13.406;2023-05-29T13:05:32;6.25;;;2.88;;
25962;SDS011;13760;52.588;13.406;2023-05-29T13:07:58;6.65;;;2.65;;
25962;SDS011;13760;52.588;13.406;2023-05-29T13:10:24;5.47;;;2.33;;
25962;SDS011;13760;52.588;13.406;2023-05-29T13:12:51;6.63;;;2.60;;
25962;SDS011;13760;52.588;13.406;2023-05-29T13:15:20;5.43;;;2.78;;
25962;SDS011;13760;52.588;13.406;2023-05-29T13:17:46;7.25;;;3.00;;
25962;SDS011;13760;52.588;13.406;2023-05-29T13:20:12;6.13;;;2.40;;
25962;SDS011;13760;52.588;13.406;2023-05-29T13:22:39;3.70;;;2.20;;
25962;SDS011;13760;52.588;13.406;2023-05-29T13:25:05;4.18;;;2.50;;
25962;SDS011;13760;52.588;13.406;2023-05-29T13:27:32;5.47;;;2.17;;
25962;SDS011;13760;52.588;13.406;2023-05-29T13:30:02;6.05;;;2.80;;
25962;SDS011;13760;52.588;13.406;2023-05-29T13:32:28;5.90;;;2.63;;
25962;SDS011;13760;52.588;13.406;2023-05-29T13:34:54;6.78;;;2.58;;
25962;SDS011;13760;52.588;13.406;2023-05-29T13:37:20;4.80;;;2.28;;
25962;SDS011;13760;52.588;13.406;2023-05-29T13:39:46;4.70;;;2.50;;
25962;SDS011;13760;52.588;13.406;2023-05-29T13:42:11;4.20;;;2.58;;
25962;SDS011;13760;52.588;13.406;2023-05-29T13:44:37;6.53;;;2.70;;
25962;SDS011;13760;52.588;13.406;2023-05-29T13:47:03;6.78;;;2.70;;
25962;SDS011;13760;52.588;13.406;2023-05-29T13:49:30;7.22;;;2.70;;
25962;SDS011;13760;52.588;13.406;2023-05-29T13:51:55;5.35;;;2.47;;
25962;SDS011;13760;52.588;13.406;2023-05-29T13:54:21;8.68;;;2.65;;
25962;SDS011;13760;52.588;13.406;2023-05-29T13:56:47;5.18;;;2.22;;
25962;SDS011;13760;52.588;13.406;2023-05-29T13:59:13;4.78;;;2.58;;
25962;SDS011;13760;52.588;13.406;2023-05-29T14:01:39;7.40;;;2.65;;
25962;SDS011;13760;52.588;13.406;2023-05-29T14:04:05;6.00;;;2.30;;
25962;SDS011;13760;52.588;13.406;2023-05-29T14:06:31;9.48;;;2.80;;
25962;SDS011;13760;52.588;13.406;2023-05-29T14:08:57;5.38;;;2.40;;
25962;SDS011;13760;52.588;13.406;2023-05-29T14:11:23;6.07;;;2.47;;
25962;SDS011;13760;52.588;13.406;2023-05-29T14:13:50;5.97;;;2.38;;
25962;SDS011;13760;52.588;13.406;2023-05-29T14:16:15;6.88;;;2.72;;
25962;SDS011;13760;52.588;13.406;2023-05-29T14:18:41;11.18;;;2.67;;
25962;SDS011;13760;52.588;13.406;2023-05-29T14:21:07;6.18;;;2.45;;
25962;SDS011;13760;52.588;13.406;2023-05-29T14:23:33;7.22;;;2.55;;
25962;SDS011;13760;52.588;13.406;2023-05-29T14:25:59;7.78;;;2.45;;
25962;SDS011;13760;52.588;13.406;2023-05-29T14:28:26;5.60;;;2.35;;
25962;SDS011;13760;52.588;13.406;2023-05-29T14:30:54;6.78;;;2.47;;
25962;SDS011;13760;52.588;13.406;2023-05-29T14:33:20;6.60;;;2.55;;
25962;SDS011;13760;52.588;13.406;2023-05-29T14:35:46;4.32;;;2.38;;
25962;SDS011;13760;52.588;13.406;2023-05-29T14:38:12;3.35;;;2.13;;
25962;SDS011;13760;52.588;13.406;2023-05-29T14:40:41;7.53;;;2.10;;
25962;SDS011;13760;52.588;13.406;2023-05-29T14:43:07;6.28;;;2.13;;
25962;SDS011;13760;52.588;13.406;2023-05-29T14:45:32;9.05;;;2.63;;
25962;SDS011;13760;52.588;13.406;2023-05-29T14:47:58;9.10;;;2.45;;
25962;SDS011;13760;52.588;13.406;2023-05-29T14:50:23;7.72;;;2.50;;
25962;SDS011;13760;52.588;13.406;2023-05-29T14:52:50;4.93;;;2.40;;
25962;SDS011;13760;52.588;13.406;2023-05-29T14:55:15;8.88;;;2.55;;
25962;SDS011;13760;52.588;13.406;2023-05-29T14:57:41;5.32;;;2.10;;
25962;SDS011;13760;52.588;13.406;2023-05-29T15:00:07;4.85;;;2.40;;
25962;SDS011;13760;52.588;13.406;2023-05-29T15:02:33;4.03;;;1.90;;